Wan Hai 273 — 9V7586 — position and weather

sailwx.info

Track history (hours):
 
Tides and Currents Weather Stations Pressure Air Temp Water Temp Dewpoint Dewpoint Depression Visibility Wind Speed Wind Dir Waves Ship Positions

Wan Hai 273

Last reported at 2017-Jul-21 14:22 UTC. Time now 2017-Jul-23 02:44 UTC.
Position N 31°37' E 126°51'.

Length 172 m; draft 8.6 m.

Type: Cargo ship. MMSI: 566406000.

Date/timePositionNaut miles runAvg speedWind from/ knotsBaromVisibWave heightAir tempDewpointWater temp
2017-Jul-21 14:22N 31°37' E 126°51'1418.4
2017-Jul-21 13:37N 31°48' E 127°01'218.3
2017-Jul-21 13:29N 31°49' E 127°02'1318.5
2017-Jul-21 12:46N 31°60' E 127°12'518.7
2017-Jul-21 12:30N 32°04' E 127°15'1018.7
2017-Jul-21 12:00N 32°12' E 127°21'4918.6
2017-Jul-21 09:22N 32°55' E 127°50'718.8
2017-Jul-21 09:00N 33°01' E 127°54'1019.0
2017-Jul-21 08:30N 33°09' E 127°59'2519.4
2017-Jul-21 07:13N 33°31' E 128°14'  
2017-Jul-18 20:11N 33°57' E 134°54'617.4
2017-Jul-18 19:50N 34°03' E 134°55'617.1
2017-Jul-18 19:30N 34°09' E 134°56'714.6
2017-Jul-18 19:00N 34°15' E 134°58'816.4
2017-Jul-18 18:30N 34°23' E 135°02'918.1
2017-Jul-18 18:00N 34°30' E 135°09'918.6
2017-Jul-18 17:30N 34°36' E 135°18'713.4
2017-Jul-18 17:00N 34°39' E 135°25'0 0.3
2017-Jul-18 16:25N 34°39' E 135°26'0 0.0
2017-Jul-18 15:55N 34°39' E 135°26'0 0.0
2017-Jul-18 15:19N 34°39' E 135°26'0 0.0
2017-Jul-18 14:55N 34°39' E 135°26'0 0.0
2017-Jul-18 13:55N 34°39' E 135°26'0 0.0
2017-Jul-18 13:25N 34°39' E 135°26'0 0.0
2017-Jul-18 12:55N 34°39' E 135°26'0 0.0
2017-Jul-18 12:25N 34°39' E 135°26'0 0.0
2017-Jul-18 11:55N 34°39' E 135°26'0 0.0
2017-Jul-18 11:07N 34°39' E 135°26'0 0.0
2017-Jul-18 10:55N 34°39' E 135°26'0 0.0
2017-Jul-18 10:25N 34°39' E 135°26'0 0.0
2017-Jul-18 09:55N 34°39' E 135°26'0 0.0
2017-Jul-18 09:25N 34°39' E 135°26'0 0.0
2017-Jul-18 08:55N 34°39' E 135°26'0 0.0
2017-Jul-18 08:25N 34°39' E 135°26'0 0.0
2017-Jul-18 07:55N 34°39' E 135°26'0 0.2
2017-Jul-18 07:31N 34°39' E 135°26'4 7.7
2017-Jul-18 07:00N 34°37' E 135°21'612.0
2017-Jul-18 06:30N 34°40' E 135°15'1 1.5
2017-Jul-18 05:57N 34°41' E 135°15'0 0.0
2017-Jul-18 05:27N 34°41' E 135°15'0 0.0
2017-Jul-18 04:57N 34°41' E 135°15'0 0.0
2017-Jul-18 04:27N 34°41' E 135°15'0 0.0
2017-Jul-18 03:51N 34°41' E 135°15'0 0.0
2017-Jul-18 03:21N 34°41' E 135°15'0 0.0
2017-Jul-18 02:57N 34°41' E 135°15'0 0.0
2017-Jul-18 02:21N 34°41' E 135°15'0 0.0
2017-Jul-18 01:57N 34°41' E 135°15'0 0.0
2017-Jul-18 01:27N 34°41' E 135°15'0 0.0
2017-Jul-18 00:51N 34°41' E 135°15'0 0.0
2017-Jul-18 00:27N 34°41' E 135°15'0 0.0
2017-Jul-17 23:57N 34°41' E 135°15'0 0.0
2017-Jul-17 23:27N 34°41' E 135°15'0 0.0
2017-Jul-17 22:57N 34°41' E 135°15'0 0.2
2017-Jul-17 22:30N 34°41' E 135°15'3 5.3
2017-Jul-17 22:00N 34°38' E 135°16'1 1.9
2017-Jul-17 21:22N 34°37' E 135°15'0 0.0
2017-Jul-17 20:58N 34°37' E 135°15'0 0.0
2017-Jul-17 20:28N 34°37' E 135°15'0 0.0
2017-Jul-17 19:58N 34°37' E 135°15'0 0.0
2017-Jul-17 19:28N 34°37' E 135°15'0 0.0
2017-Jul-17 18:58N 34°37' E 135°15'0 0.0
2017-Jul-17 18:25N 34°37' E 135°15'0 0.0
2017-Jul-17 17:58N 34°37' E 135°15'0 0.0
2017-Jul-17 17:28N 34°37' E 135°15'0 0.0
2017-Jul-17 16:58N 34°37' E 135°15'0 0.0
2017-Jul-17 16:28N 34°37' E 135°15'0 0.0
2017-Jul-17 15:58N 34°37' E 135°15'0 0.0
2017-Jul-17 15:28N 34°37' E 135°15'0 0.0
2017-Jul-17 14:58N 34°37' E 135°15'0 0.0
2017-Jul-17 14:28N 34°37' E 135°15'0 0.0
2017-Jul-17 13:58N 34°37' E 135°15'0 0.0
2017-Jul-17 13:22N 34°37' E 135°15'0 0.0
2017-Jul-17 12:58N 34°37' E 135°15'0 0.1
2017-Jul-17 12:28N 34°37' E 135°15'0 0.2
2017-Jul-17 11:58N 34°37' E 135°15'0 0.2
2017-Jul-17 11:30N 34°37' E 135°15'3 6.9
2017-Jul-17 11:00N 34°35' E 135°12'4 8.6
2017-Jul-17 10:30N 34°35' E 135°07'714.2
2017-Jul-17 10:00N 34°37' E 134°58'815.8
2017-Jul-17 09:30N 34°34' E 134°49'916.1
2017-Jul-17 08:58N 34°30' E 134°40'  
2017-Jul-11 16:36N 22°53' E 120°01'417.3
2017-Jul-11 16:21N 22°49' E 120°03'617.3
2017-Jul-11 16:00N 22°43' E 120°06'816.0
2017-Jul-11 15:30N 22°38' E 120°13'510.3
2017-Jul-11 15:00N 22°36' E 120°17'1 2.6
2017-Jul-11 14:30N 22°35' E 120°18'  
Track history (hours):
 
Tides and Currents Weather Stations Pressure Air Temp Water Temp Dewpoint Dewpoint Depression Visibility Wind Speed Wind Dir Waves Ship Positions

Wan Hai 273

Last reported at 2017-Jul-21 14:22 UTC. Time now 2017-Jul-23 02:44 UTC.
Position N 31°37' E 126°51'.

Length 172 m; draft 8.6 m.

Type: Cargo ship. MMSI: 566406000.

Date/timePositionNaut miles runAvg speedWind from/ knotsBaromVisibWave heightAir tempDewpointWater temp
2017-Jul-21 14:22N 31°37' E 126°51'1418.4
2017-Jul-21 13:37N 31°48' E 127°01'218.3
2017-Jul-21 13:29N 31°49' E 127°02'1318.5
2017-Jul-21 12:46N 31°60' E 127°12'518.7
2017-Jul-21 12:30N 32°04' E 127°15'1018.7
2017-Jul-21 12:00N 32°12' E 127°21'4918.6
2017-Jul-21 09:22N 32°55' E 127°50'718.8
2017-Jul-21 09:00N 33°01' E 127°54'1019.0
2017-Jul-21 08:30N 33°09' E 127°59'2519.4
2017-Jul-21 07:13N 33°31' E 128°14'  
2017-Jul-18 20:11N 33°57' E 134°54'617.4
2017-Jul-18 19:50N 34°03' E 134°55'617.1
2017-Jul-18 19:30N 34°09' E 134°56'714.6
2017-Jul-18 19:00N 34°15' E 134°58'816.4
2017-Jul-18 18:30N 34°23' E 135°02'918.1
2017-Jul-18 18:00N 34°30' E 135°09'918.6
2017-Jul-18 17:30N 34°36' E 135°18'713.4
2017-Jul-18 17:00N 34°39' E 135°25'0 0.3
2017-Jul-18 16:25N 34°39' E 135°26'0 0.0
2017-Jul-18 15:55N 34°39' E 135°26'0 0.0
2017-Jul-18 15:19N 34°39' E 135°26'0 0.0
2017-Jul-18 14:55N 34°39' E 135°26'0 0.0
2017-Jul-18 13:55N 34°39' E 135°26'0 0.0
2017-Jul-18 13:25N 34°39' E 135°26'0 0.0
2017-Jul-18 12:55N 34°39' E 135°26'0 0.0
2017-Jul-18 12:25N 34°39' E 135°26'0 0.0
2017-Jul-18 11:55N 34°39' E 135°26'0 0.0
2017-Jul-18 11:07N 34°39' E 135°26'0 0.0
2017-Jul-18 10:55N 34°39' E 135°26'0 0.0
2017-Jul-18 10:25N 34°39' E 135°26'0 0.0
2017-Jul-18 09:55N 34°39' E 135°26'0 0.0
2017-Jul-18 09:25N 34°39' E 135°26'0 0.0
2017-Jul-18 08:55N 34°39' E 135°26'0 0.0
2017-Jul-18 08:25N 34°39' E 135°26'0 0.0
2017-Jul-18 07:55N 34°39' E 135°26'0 0.2
2017-Jul-18 07:31N 34°39' E 135°26'4 7.7
2017-Jul-18 07:00N 34°37' E 135°21'612.0
2017-Jul-18 06:30N 34°40' E 135°15'1 1.5
2017-Jul-18 05:57N 34°41' E 135°15'0 0.0
2017-Jul-18 05:27N 34°41' E 135°15'0 0.0
2017-Jul-18 04:57N 34°41' E 135°15'0 0.0
2017-Jul-18 04:27N 34°41' E 135°15'0 0.0
2017-Jul-18 03:51N 34°41' E 135°15'0 0.0
2017-Jul-18 03:21N 34°41' E 135°15'0 0.0
2017-Jul-18 02:57N 34°41' E 135°15'0 0.0
2017-Jul-18 02:21N 34°41' E 135°15'0 0.0
2017-Jul-18 01:57N 34°41' E 135°15'0 0.0
2017-Jul-18 01:27N 34°41' E 135°15'0 0.0
2017-Jul-18 00:51N 34°41' E 135°15'0 0.0
2017-Jul-18 00:27N 34°41' E 135°15'0 0.0
2017-Jul-17 23:57N 34°41' E 135°15'0 0.0
2017-Jul-17 23:27N 34°41' E 135°15'0 0.0
2017-Jul-17 22:57N 34°41' E 135°15'0 0.2
2017-Jul-17 22:30N 34°41' E 135°15'3 5.3
2017-Jul-17 22:00N 34°38' E 135°16'1 1.9
2017-Jul-17 21:22N 34°37' E 135°15'0 0.0
2017-Jul-17 20:58N 34°37' E 135°15'0 0.0
2017-Jul-17 20:28N 34°37' E 135°15'0 0.0
2017-Jul-17 19:58N 34°37' E 135°15'0 0.0
2017-Jul-17 19:28N 34°37' E 135°15'0 0.0
2017-Jul-17 18:58N 34°37' E 135°15'0 0.0
2017-Jul-17 18:25N 34°37' E 135°15'0 0.0
2017-Jul-17 17:58N 34°37' E 135°15'0 0.0
2017-Jul-17 17:28N 34°37' E 135°15'0 0.0
2017-Jul-17 16:58N 34°37' E 135°15'0 0.0
2017-Jul-17 16:28N 34°37' E 135°15'0 0.0
2017-Jul-17 15:58N 34°37' E 135°15'0 0.0
2017-Jul-17 15:28N 34°37' E 135°15'0 0.0
2017-Jul-17 14:58N 34°37' E 135°15'0 0.0
2017-Jul-17 14:28N 34°37' E 135°15'0 0.0
2017-Jul-17 13:58N 34°37' E 135°15'0 0.0
2017-Jul-17 13:22N 34°37' E 135°15'0 0.0
2017-Jul-17 12:58N 34°37' E 135°15'0 0.1
2017-Jul-17 12:28N 34°37' E 135°15'0 0.2
2017-Jul-17 11:58N 34°37' E 135°15'0 0.2
2017-Jul-17 11:30N 34°37' E 135°15'3 6.9
2017-Jul-17 11:00N 34°35' E 135°12'4 8.6
2017-Jul-17 10:30N 34°35' E 135°07'714.2
2017-Jul-17 10:00N 34°37' E 134°58'815.8
2017-Jul-17 09:30N 34°34' E 134°49'916.1
2017-Jul-17 08:58N 34°30' E 134°40'  
2017-Jul-11 16:36N 22°53' E 120°01'417.3
2017-Jul-11 16:21N 22°49' E 120°03'617.3
2017-Jul-11 16:00N 22°43' E 120°06'816.0
2017-Jul-11 15:30N 22°38' E 120°13'510.3
2017-Jul-11 15:00N 22°36' E 120°17'1 2.6
2017-Jul-11 14:30N 22°35' E 120°18'  

Dump ship's entire track history